createdAt,value
2022-11-12T07:40:12.876Z,7.90
2022-11-12T07:42:41.073Z,7.80
2022-11-12T07:45:09.732Z,7.80
2022-11-12T07:47:37.709Z,7.80
2022-11-12T07:50:06.695Z,7.90
2022-11-12T07:52:34.707Z,8.00
2022-11-12T07:55:02.691Z,8.00
2022-11-12T07:57:33.703Z,8.10
2022-11-12T08:00:01.661Z,8.10
2022-11-12T08:02:29.614Z,8.20
2022-11-12T08:04:57.665Z,8.20
2022-11-12T08:07:25.737Z,8.00
2022-11-12T08:09:54.383Z,8.20
2022-11-12T08:12:22.408Z,8.20
2022-11-12T08:14:51.777Z,8.30
2022-11-12T08:17:19.800Z,8.30
2022-11-12T08:19:47.766Z,8.40
2022-11-12T08:22:15.731Z,8.40
2022-11-12T08:24:43.735Z,8.50
2022-11-12T08:27:11.721Z,8.50
2022-11-12T08:29:39.744Z,8.50
2022-11-12T08:32:09.199Z,8.50
2022-11-12T08:34:41.255Z,8.50
2022-11-12T08:37:09.244Z,8.50
2022-11-12T08:39:37.251Z,8.50
2022-11-12T08:42:05.650Z,8.50
2022-11-12T08:44:33.691Z,8.50
2022-11-12T08:47:02.233Z,8.50
2022-11-12T08:49:31.872Z,8.40
2022-11-12T08:51:59.904Z,8.40
2022-11-12T08:54:30.371Z,8.40
2022-11-12T08:56:58.446Z,8.40
2022-11-12T08:59:26.439Z,8.50
2022-11-12T09:01:54.553Z,8.50
2022-11-12T09:04:22.585Z,8.50
2022-11-12T09:06:54.019Z,8.60
2022-11-12T09:09:22.417Z,8.50
2022-11-12T09:11:50.412Z,8.50
2022-11-12T09:14:18.710Z,8.50
2022-11-12T09:16:46.811Z,8.50
2022-11-12T09:19:14.947Z,8.50
2022-11-12T09:21:42.915Z,8.50
2022-11-12T09:24:12.186Z,8.50
2022-11-12T09:26:40.242Z,8.50
2022-11-12T09:29:08.271Z,8.50
2022-11-12T09:31:36.243Z,8.40
2022-11-12T09:34:04.344Z,8.40
2022-11-12T09:36:37.167Z,8.50
2022-11-12T09:39:08.691Z,8.50
2022-11-12T09:41:39.322Z,8.50
2022-11-12T09:44:11.408Z,8.50
2022-11-12T09:46:46.481Z,8.50
2022-11-12T09:49:19.929Z,8.50
2022-11-12T09:51:52.407Z,8.50
2022-11-12T09:54:25.297Z,8.60
2022-11-12T09:56:56.369Z,8.60
2022-11-12T09:59:27.912Z,8.60
2022-11-12T10:02:07.543Z,8.60
2022-11-12T10:04:50.824Z,8.60
2022-11-12T10:07:31.472Z,8.60
2022-11-12T10:10:09.970Z,8.60
2022-11-12T10:12:54.424Z,8.60
2022-11-12T10:15:54.466Z,8.60
2022-11-12T10:18:32.589Z,8.80
2022-11-12T10:21:09.654Z,8.80
2022-11-12T10:23:43.203Z,8.80
2022-11-12T10:26:14.156Z,8.90
2022-11-12T10:28:48.391Z,9.10
2022-11-12T10:31:18.387Z,9.10
2022-11-12T10:33:46.713Z,9.10
2022-11-12T10:36:27.276Z,9.20
2022-11-12T10:38:56.681Z,9.20
2022-11-12T10:41:27.433Z,9.20
2022-11-12T10:43:59.278Z,9.20
2022-11-12T10:46:29.307Z,9.30
2022-11-12T10:49:08.033Z,9.30
2022-11-12T10:51:37.682Z,9.40
2022-11-12T10:54:30.674Z,9.50
2022-11-12T10:57:07.079Z,9.50
2022-11-12T10:59:36.452Z,9.50
2022-11-12T11:02:04.755Z,9.60
2022-11-12T11:04:35.019Z,9.70
2022-11-12T11:07:06.231Z,9.70
2022-11-12T11:09:35.684Z,9.80
2022-11-12T11:12:03.825Z,9.80
2022-11-12T11:14:34.224Z,9.90
2022-11-12T11:17:09.276Z,9.90
2022-11-12T11:19:39.988Z,10.00
2022-11-12T11:22:26.845Z,10.10
2022-11-12T11:25:16.051Z,10.10
2022-11-12T11:27:55.197Z,10.10
2022-11-12T11:30:24.018Z,10.10
2022-11-12T11:33:16.203Z,10.10
2022-11-12T11:35:54.904Z,10.10
2022-11-12T11:38:34.812Z,10.10
2022-11-12T11:41:19.722Z,10.20
2022-11-12T11:43:59.826Z,10.20
2022-11-12T11:46:46.238Z,10.20
2022-11-12T11:49:44.286Z,10.20
2022-11-12T11:52:27.197Z,10.30
2022-11-12T11:55:07.753Z,10.30
2022-11-12T11:57:44.303Z,10.30
2022-11-12T12:00:17.852Z,10.40
2022-11-12T12:03:10.839Z,10.40
2022-11-12T12:05:45.098Z,10.50
2022-11-12T12:08:20.213Z,10.50
2022-11-12T12:11:11.241Z,10.50
2022-11-12T12:13:52.455Z,10.50
2022-11-12T12:16:41.439Z,10.50
2022-11-12T12:19:22.301Z,10.50
2022-11-12T12:21:53.404Z,10.50
2022-11-12T12:24:26.832Z,10.60
2022-11-12T12:26:58.436Z,10.60
2022-11-12T12:29:32.505Z,10.60
2022-11-12T12:32:06.058Z,10.70
2022-11-12T12:34:36.731Z,10.70
2022-11-12T12:37:12.331Z,10.70
2022-11-12T12:39:48.232Z,10.80
2022-11-12T12:42:21.738Z,10.80
2022-11-12T12:45:01.280Z,10.80
2022-11-12T12:47:32.086Z,10.80
2022-11-12T12:50:04.419Z,10.90
2022-11-12T12:53:03.325Z,10.90
2022-11-12T12:55:40.945Z,10.90
2022-11-12T12:58:19.229Z,10.90
2022-11-12T13:00:54.900Z,10.90
2022-11-12T13:03:49.821Z,11.00
2022-11-12T13:06:28.717Z,10.90
2022-11-12T13:09:03.191Z,10.90
2022-11-12T13:12:12.523Z,10.90
2022-11-12T13:14:53.256Z,11.00
2022-11-12T13:17:47.755Z,11.00
2022-11-12T13:20:36.769Z,10.90
2022-11-12T13:23:09.758Z,10.90
2022-11-12T13:25:40.063Z,10.90
2022-11-12T13:28:13.133Z,10.80
2022-11-12T13:31:04.720Z,10.70
2022-11-12T13:33:34.713Z,10.70
2022-11-12T13:36:27.099Z,10.70
2022-11-12T13:39:00.613Z,10.70
2022-11-12T13:41:51.860Z,10.80
2022-11-12T13:44:20.101Z,10.80
2022-11-12T13:46:51.179Z,10.80
2022-11-12T13:49:19.372Z,10.70
2022-11-12T13:51:51.972Z,10.70
2022-11-12T13:54:34.332Z,10.80
2022-11-12T13:57:27.010Z,10.90
2022-11-12T14:00:20.874Z,10.90
2022-11-12T14:02:53.224Z,10.90
2022-11-12T14:05:24.377Z,10.90
2022-11-12T14:08:16.562Z,10.90
2022-11-12T14:10:54.683Z,10.90
2022-11-12T14:13:40.146Z,11.00
2022-11-12T14:16:24.913Z,11.00
2022-11-12T14:19:09.777Z,11.00
2022-11-12T14:21:37.853Z,11.00
2022-11-12T14:24:06.229Z,11.00
2022-11-12T14:26:39.048Z,11.00
2022-11-12T14:29:08.646Z,11.00
2022-11-12T14:31:36.584Z,11.10
2022-11-12T14:34:23.782Z,11.10
2022-11-12T14:36:55.798Z,11.10
2022-11-12T14:39:24.529Z,11.10
2022-11-12T14:41:53.484Z,11.10
2022-11-12T14:44:28.480Z,11.00
2022-11-12T14:46:58.758Z,11.00
2022-11-12T14:49:33.806Z,11.10
2022-11-12T14:52:08.400Z,11.10
2022-11-12T14:54:41.159Z,11.00
2022-11-12T14:57:18.928Z,11.10
2022-11-12T14:59:48.364Z,11.10
2022-11-12T15:02:34.278Z,11.00
2022-11-12T15:05:14.901Z,11.00
2022-11-12T15:13:20.462Z,11.10
